createdAt,value
2023-02-19T00:01:33.508Z,100782.56
2023-02-19T00:04:02.952Z,100779.84
2023-02-19T00:06:33.352Z,100787.22
2023-02-19T00:09:01.469Z,100790.25
2023-02-19T00:11:31.561Z,100792.38
2023-02-19T00:14:03.448Z,100791.41
2023-02-19T00:16:32.674Z,100798.66
2023-02-19T00:19:01.989Z,100791.09
2023-02-19T00:21:30.182Z,100802.19
2023-02-19T00:23:59.529Z,100794.97
2023-02-19T00:26:27.481Z,100793.81
2023-02-19T00:28:58.506Z,100785.16
2023-02-19T00:31:30.866Z,100784.81
2023-02-19T00:34:02.509Z,100777.22
2023-02-19T00:36:30.679Z,100778.88
2023-02-19T00:38:58.416Z,100786.81
2023-02-19T00:41:26.403Z,100770.63
2023-02-19T00:43:55.843Z,100757.50
2023-02-19T00:46:26.072Z,100760.72
2023-02-19T00:48:56.152Z,100753.50
2023-02-19T00:51:26.313Z,100754.69
2023-02-19T00:53:54.070Z,100764.44
2023-02-19T00:56:22.094Z,100769.59
2023-02-19T00:58:50.646Z,100775.97
2023-02-19T01:01:19.108Z,100775.03
2023-02-19T01:03:47.851Z,100771.03
2023-02-19T01:06:19.623Z,100758.22
2023-02-19T01:08:47.810Z,100751.63
2023-02-19T01:11:16.523Z,100764.44
2023-02-19T01:13:44.633Z,100748.09
2023-02-19T01:16:14.924Z,100749.97
2023-02-19T01:18:43.050Z,100740.75
2023-02-19T01:21:13.745Z,100740.75
2023-02-19T01:23:44.034Z,100741.34
2023-02-19T01:26:15.887Z,100744.63
2023-02-19T01:28:43.641Z,100726.53
2023-02-19T01:31:15.091Z,100722.72
2023-02-19T01:33:46.766Z,100720.66
2023-02-19T01:36:14.781Z,100712.19
2023-02-19T01:38:44.293Z,100708.63
2023-02-19T01:41:15.626Z,100702.63
2023-02-19T01:44:01.897Z,100680.53
2023-02-19T01:46:31.094Z,100695.34
2023-02-19T01:49:02.884Z,100699.97
2023-02-19T01:51:33.355Z,100709.75
2023-02-19T01:54:05.266Z,100700.53
2023-02-19T01:56:34.755Z,100699.22
2023-02-19T01:59:03.209Z,100686.44
2023-02-19T02:01:30.897Z,100690.81
2023-02-19T02:03:58.857Z,100693.34
2023-02-19T02:06:30.511Z,100683.28
2023-02-19T02:09:17.511Z,100673.47
2023-02-19T02:11:50.179Z,100671.03
2023-02-19T02:14:19.497Z,100658.81
2023-02-19T02:16:57.963Z,100647.34
2023-02-19T02:19:41.177Z,100665.22
2023-02-19T02:22:15.815Z,100668.09
2023-02-19T02:25:06.318Z,100667.78
2023-02-19T02:27:52.266Z,100660.19
2023-02-19T02:30:38.427Z,100661.50
2023-02-19T02:33:16.657Z,100669.66
2023-02-19T02:35:48.803Z,100674.88
2023-02-19T02:38:19.372Z,100674.53
2023-02-19T02:40:48.086Z,100667.44
2023-02-19T02:43:15.809Z,100670.16
2023-02-19T02:45:44.818Z,100665.28
2023-02-19T02:48:36.755Z,100672.09
2023-02-19T02:51:16.766Z,100666.06
2023-02-19T02:54:07.559Z,100662.31
2023-02-19T02:56:36.693Z,100662.19
2023-02-19T02:59:08.156Z,100658.53
2023-02-19T03:01:59.332Z,100669.84
2023-02-19T03:04:59.553Z,100673.19
2023-02-19T03:07:29.738Z,100680.50
2023-02-19T03:10:00.544Z,100672.69
2023-02-19T03:12:49.552Z,100670.19
2023-02-19T03:15:35.718Z,100677.25
2023-02-19T03:18:26.928Z,100677.91
2023-02-19T03:20:59.032Z,100688.91
2023-02-19T03:23:44.934Z,100685.63
2023-02-19T03:26:13.690Z,100692.59
2023-02-19T03:29:01.769Z,100700.31
2023-02-19T03:31:33.168Z,100699.13
2023-02-19T03:34:06.337Z,100702.91
2023-02-19T03:36:38.776Z,100696.19
2023-02-19T03:39:08.007Z,100700.31
2023-02-19T03:41:42.761Z,100707.28
2023-02-19T03:44:17.253Z,100710.84
2023-02-19T03:46:52.845Z,100715.94
2023-02-19T03:49:27.588Z,100720.19
2023-02-19T03:52:02.716Z,100714.03
2023-02-19T03:54:36.718Z,100720.53
2023-02-19T03:57:09.334Z,100729.53
2023-02-19T03:59:44.283Z,100721.00
2023-02-19T04:02:16.657Z,100714.19
2023-02-19T04:04:49.064Z,100718.31
2023-02-19T04:07:16.903Z,100721.13
2023-02-19T04:09:47.110Z,100721.50
2023-02-19T04:12:16.659Z,100725.03
2023-02-19T04:14:48.368Z,100729.25
2023-02-19T04:17:23.171Z,100725.81
2023-02-19T04:19:55.480Z,100730.56
2023-02-19T04:22:23.646Z,100728.09
2023-02-19T04:24:53.495Z,100730.09
2023-02-19T04:27:21.274Z,100740.00
2023-02-19T04:29:48.987Z,100738.47
2023-02-19T04:32:16.731Z,100739.19
2023-02-19T04:34:44.454Z,100747.94
2023-02-19T04:37:13.641Z,100747.81
2023-02-19T04:39:41.281Z,100749.00
2023-02-19T04:42:08.966Z,100753.94
2023-02-19T04:44:36.611Z,100750.69
2023-02-19T04:47:04.381Z,100751.41
2023-02-19T04:49:32.100Z,100744.81
2023-02-19T04:51:59.796Z,100758.16
2023-02-19T04:54:28.954Z,100754.97
2023-02-19T04:56:57.479Z,100761.19
2023-02-19T04:59:25.225Z,100759.81
2023-02-19T05:01:52.958Z,100758.16
2023-02-19T05:04:20.841Z,100764.84
2023-02-19T05:06:48.474Z,100763.56
2023-02-19T05:09:16.152Z,100773.66
2023-02-19T05:11:45.150Z,100766.38
2023-02-19T05:14:12.825Z,100774.72
2023-02-19T05:16:40.505Z,100776.47
2023-02-19T05:19:08.149Z,100772.22
2023-02-19T05:21:35.846Z,100761.22
2023-02-19T05:24:03.505Z,100768.66
2023-02-19T05:26:31.197Z,100766.41
2023-02-19T05:29:00.551Z,100762.06
2023-02-19T05:31:28.325Z,100752.28
2023-02-19T05:33:56.252Z,100755.56
2023-02-19T05:36:24.618Z,100760.53
2023-02-19T05:38:54.088Z,100754.66
2023-02-19T05:41:24.301Z,100760.66
2023-02-19T05:43:52.085Z,100768.00
2023-02-19T05:46:23.971Z,100768.31
2023-02-19T05:48:53.566Z,100771.38
2023-02-19T05:51:22.933Z,100766.34
2023-02-19T05:53:51.738Z,100770.09
2023-02-19T05:56:27.725Z,100771.16
2023-02-19T05:58:56.363Z,100775.16
2023-02-19T06:01:26.860Z,100781.31
2023-02-19T06:03:57.241Z,100780.97
2023-02-19T06:06:25.478Z,100783.88
2023-02-19T06:08:53.693Z,100778.25
2023-02-19T06:11:22.240Z,100780.56
2023-02-19T06:13:50.471Z,100776.16
2023-02-19T06:16:19.014Z,100770.81
2023-02-19T06:18:48.077Z,100774.84
2023-02-19T06:21:16.940Z,100771.28
2023-02-19T06:23:45.508Z,100776.25
2023-02-19T06:26:15.218Z,100772.59
2023-02-19T06:28:43.385Z,100779.75
2023-02-19T06:31:12.631Z,100777.63
2023-02-19T06:33:41.478Z,100779.16
2023-02-19T06:36:13.462Z,100789.81
2023-02-19T06:38:41.254Z,100792.16
2023-02-19T06:41:10.103Z,100801.28
2023-02-19T06:43:38.164Z,100802.34
2023-02-19T06:46:07.255Z,100818.16
2023-02-19T06:48:35.983Z,100820.00
2023-02-19T06:51:03.746Z,100833.81
2023-02-19T06:53:32.874Z,100832.28
2023-02-19T06:56:02.095Z,100835.53
2023-02-19T06:58:30.258Z,100839.44
2023-02-19T07:00:57.931Z,100848.84
2023-02-19T07:03:26.171Z,100850.28
2023-02-19T07:05:53.874Z,100852.63
2023-02-19T07:08:21.868Z,100853.38
2023-02-19T07:10:57.288Z,100853.00
2023-02-19T07:13:26.621Z,100862.03
2023-02-19T07:15:59.979Z,100858.03
2023-02-19T07:18:27.850Z,100863.97
2023-02-19T07:20:55.484Z,100872.50
2023-02-19T07:23:23.157Z,100879.03
2023-02-19T07:25:50.825Z,100884.25
2023-02-19T07:28:19.806Z,100885.31
2023-02-19T07:30:47.489Z,100883.81
2023-02-19T07:33:15.141Z,100886.06
2023-02-19T07:35:46.843Z,100896.59
2023-02-19T07:38:16.994Z,100897.19
2023-02-19T07:40:52.095Z,100906.31
2023-02-19T07:43:21.350Z,100910.06
2023-02-19T07:45:49.284Z,100907.75
2023-02-19T07:48:17.386Z,100918.81
2023-02-19T07:50:52.309Z,100922.72
2023-02-19T07:53:20.263Z,100922.44
2023-02-19T07:55:47.980Z,100927.47
2023-02-19T07:58:15.649Z,100937.88
2023-02-19T08:00:44.913Z,100932.44
2023-02-19T08:03:13.059Z,100939.31
2023-02-19T08:05:42.677Z,100953.88
2023-02-19T08:08:12.249Z,100954.06
2023-02-19T08:10:57.794Z,100967.34
2023-02-19T08:13:26.697Z,100976.44
2023-02-19T08:16:10.924Z,100982.25
2023-02-19T08:18:44.498Z,100979.78
2023-02-19T08:21:12.430Z,100982.78
2023-02-19T08:23:40.685Z,100995.97
2023-02-19T08:26:09.772Z,100996.38
2023-02-19T08:28:37.575Z,101007.50
2023-02-19T08:31:08.583Z,101015.50
2023-02-19T08:33:36.804Z,101022.97
2023-02-19T08:36:06.341Z,101022.19
2023-02-19T08:38:35.890Z,101032.44
2023-02-19T08:41:06.950Z,101033.19
2023-02-19T08:43:35.114Z,101041.41
2023-02-19T08:46:03.120Z,101054.16
2023-02-19T08:48:32.283Z,101040.59
2023-02-19T08:51:03.836Z,101054.91
2023-02-19T08:53:32.764Z,101065.44
2023-02-19T08:56:00.479Z,101062.28
2023-02-19T08:58:28.145Z,101077.59
2023-02-19T09:00:55.838Z,101078.41
2023-02-19T09:03:23.544Z,101080.56
2023-02-19T09:05:53.247Z,101091.44
2023-02-19T09:08:20.867Z,101091.34
2023-02-19T09:10:58.745Z,101098.66
2023-02-19T09:13:26.456Z,101111.09
2023-02-19T09:15:54.106Z,101111.91
2023-02-19T09:18:21.812Z,101107.97
2023-02-19T09:20:49.405Z,101099.97
2023-02-19T09:23:18.433Z,101103.56
2023-02-19T09:25:46.177Z,101119.41
2023-02-19T09:28:13.832Z,101129.25
2023-02-19T09:30:41.588Z,101131.78
2023-02-19T09:33:09.293Z,101119.59
2023-02-19T09:35:42.165Z,101116.97
2023-02-19T09:38:11.022Z,101119.59
2023-02-19T09:40:40.695Z,101138.06
2023-02-19T09:43:10.833Z,101140.88
2023-02-19T09:45:39.050Z,101120.31
2023-02-19T09:48:07.629Z,101133.75
2023-02-19T09:50:39.146Z,101134.25
2023-02-19T09:53:15.545Z,101138.38
2023-02-19T09:55:45.882Z,101153.44
2023-02-19T09:58:24.649Z,101156.91
2023-02-19T10:00:53.869Z,101159.25
2023-02-19T10:03:30.570Z,101163.78
2023-02-19T10:06:00.062Z,101170.13
2023-02-19T10:08:27.693Z,101171.00
2023-02-19T10:10:56.860Z,101183.34
2023-02-19T10:13:30.617Z,101177.50
2023-02-19T10:15:59.811Z,101186.88
2023-02-19T10:18:29.296Z,101182.06
2023-02-19T10:20:58.414Z,101198.97
2023-02-19T10:23:27.007Z,101204.69
2023-02-19T10:25:57.652Z,101215.59
2023-02-19T10:28:29.159Z,101225.66
2023-02-19T10:30:59.463Z,101226.25
2023-02-19T10:33:27.578Z,101236.31
2023-02-19T10:35:57.867Z,101237.34
2023-02-19T10:38:29.260Z,101241.25
2023-02-19T10:41:05.188Z,101249.44
2023-02-19T10:43:36.914Z,101255.84
2023-02-19T10:46:08.251Z,101256.94
2023-02-19T10:48:38.815Z,101264.03
2023-02-19T10:51:08.028Z,101273.97
2023-02-19T10:53:47.200Z,101272.78
2023-02-19T10:56:23.681Z,101280.94
2023-02-19T10:58:52.045Z,101286.59
2023-02-19T11:01:21.717Z,101281.25
2023-02-19T11:03:50.905Z,101282.00
2023-02-19T11:06:21.267Z,101292.59
2023-02-19T11:08:53.510Z,101280.91
2023-02-19T11:11:35.550Z,101282.78
2023-02-19T11:14:06.558Z,101299.75
2023-02-19T11:16:44.311Z,101292.56
2023-02-19T11:19:26.131Z,101306.66
2023-02-19T11:21:54.572Z,101311.38
2023-02-19T11:24:28.163Z,101311.72
2023-02-19T11:26:58.181Z,101314.13
2023-02-19T11:29:28.601Z,101317.47
2023-02-19T11:31:57.365Z,101328.00
2023-02-19T11:34:30.536Z,101334.91
2023-02-19T11:37:13.332Z,101329.03
2023-02-19T11:39:43.284Z,101330.31
2023-02-19T11:42:29.518Z,101341.59
2023-02-19T11:45:23.483Z,101343.94
2023-02-19T11:48:19.180Z,101357.81
2023-02-19T11:50:56.182Z,101355.47
2023-02-19T11:53:27.873Z,101360.66
2023-02-19T11:56:09.328Z,101356.03
2023-02-19T11:58:57.269Z,101350.78
2023-02-19T12:01:45.126Z,101355.63
2023-02-19T12:04:44.641Z,101336.72
2023-02-19T12:07:23.375Z,101359.50
2023-02-19T12:10:02.871Z,101343.72
2023-02-19T12:12:45.231Z,101345.31
2023-02-19T12:15:40.786Z,101344.16
2023-02-19T12:18:34.469Z,101365.50
2023-02-19T12:21:15.794Z,101360.28
2023-02-19T12:24:06.459Z,101359.97
2023-02-19T12:26:40.276Z,101359.81
2023-02-19T12:29:32.371Z,101358.78
2023-02-19T12:32:17.673Z,101371.13
2023-02-19T12:35:21.637Z,101380.63
2023-02-19T12:37:56.559Z,101386.50
2023-02-19T12:40:38.912Z,101376.59
2023-02-19T12:43:14.623Z,101391.28
2023-02-19T12:45:46.342Z,101396.16
2023-02-19T12:48:24.953Z,101407.97
2023-02-19T12:50:57.914Z,101396.94
2023-02-19T12:53:43.746Z,101390.66
2023-02-19T12:56:18.057Z,101374.38
2023-02-19T12:58:49.498Z,101394.53
2023-02-19T13:01:23.242Z,101394.94
2023-02-19T13:03:59.639Z,101400.03
2023-02-19T13:06:37.178Z,101396.97
2023-02-19T13:09:12.923Z,101402.06
2023-02-19T13:11:45.554Z,101398.63
2023-02-19T13:14:22.692Z,101412.97
2023-02-19T13:16:58.088Z,101422.81
2023-02-19T13:19:27.304Z,101416.75
2023-02-19T13:22:22.607Z,101416.75
2023-02-19T13:24:52.192Z,101405.94
2023-02-19T13:27:42.908Z,101414.00
2023-02-19T13:30:30.983Z,101411.63
2023-02-19T13:33:14.850Z,101418.72
2023-02-19T13:36:05.907Z,101409.25
2023-02-19T13:38:35.143Z,101418.94
2023-02-19T13:41:03.137Z,101424.66
2023-02-19T13:43:34.767Z,101421.47
2023-02-19T13:46:06.398Z,101420.00
2023-02-19T13:48:35.504Z,101426.31
2023-02-19T13:51:36.608Z,101427.19
2023-02-19T13:54:15.519Z,101426.97
2023-02-19T13:56:43.331Z,101425.41
2023-02-19T13:59:25.137Z,101428.63
2023-02-19T14:02:16.552Z,101439.13
2023-02-19T14:04:56.861Z,101458.78
2023-02-19T14:08:03.217Z,101465.91
2023-02-19T14:10:54.287Z,101474.94
2023-02-19T14:13:59.174Z,101469.25
2023-02-19T14:16:54.800Z,101475.06
2023-02-19T14:19:58.317Z,101473.03
2023-02-19T14:22:49.764Z,101455.31
2023-02-19T14:25:52.698Z,101472.53
2023-02-19T14:28:29.840Z,101476.28
2023-02-19T14:31:00.860Z,101479.59
2023-02-19T14:33:31.372Z,101471.88
2023-02-19T14:36:05.664Z,101482.56
2023-02-19T14:38:37.316Z,101479.47
2023-02-19T14:41:06.499Z,101479.38
2023-02-19T14:43:37.229Z,101476.66
2023-02-19T14:46:09.601Z,101476.66
2023-02-19T14:48:40.662Z,101470.72
2023-02-19T14:51:13.588Z,101474.03
2023-02-19T14:53:45.775Z,101486.97
2023-02-19T14:56:22.085Z,101493.47
2023-02-19T14:59:10.320Z,101496.31
2023-02-19T15:01:38.599Z,101494.41
2023-02-19T15:04:07.100Z,101486.31
2023-02-19T15:06:36.770Z,101491.06
2023-02-19T15:09:08.120Z,101503.50
2023-02-19T15:11:36.913Z,101503.81
2023-02-19T15:14:07.018Z,101519.69
2023-02-19T15:16:37.756Z,101522.16
2023-02-19T15:19:09.499Z,101515.25
2023-02-19T15:21:41.186Z,101517.41
2023-02-19T15:24:08.980Z,101532.34
2023-02-19T15:26:38.789Z,101524.97
2023-02-19T15:29:12.839Z,101532.69
2023-02-19T15:31:47.904Z,101524.72
2023-02-19T15:34:18.379Z,101520.72
2023-02-19T15:36:46.374Z,101526.72
2023-02-19T15:39:21.319Z,101516.88
2023-02-19T15:41:55.098Z,101515.56
2023-02-19T15:44:31.987Z,101523.94
2023-02-19T15:47:08.484Z,101523.50
2023-02-19T15:49:44.952Z,101544.13
2023-02-19T15:52:20.005Z,101532.31
2023-02-19T15:54:53.763Z,101544.41
2023-02-19T15:57:25.899Z,101540.00
2023-02-19T15:59:57.965Z,101540.00
2023-02-19T16:02:27.808Z,101544.84
2023-02-19T16:04:55.610Z,101545.31
2023-02-19T16:07:26.371Z,101550.59
2023-02-19T16:10:20.760Z,101553.66
2023-02-19T16:12:59.235Z,101567.09
2023-02-19T16:15:28.125Z,101566.44
2023-02-19T16:17:58.482Z,101568.84
2023-02-19T16:20:30.023Z,101571.09
2023-02-19T16:23:00.686Z,101566.97
2023-02-19T16:25:33.970Z,101589.44
2023-02-19T16:28:11.718Z,101597.66
2023-02-19T16:30:39.787Z,101609.00
2023-02-19T16:33:23.284Z,101601.09
2023-02-19T16:35:52.311Z,101597.56
2023-02-19T16:38:21.457Z,101604.16
2023-02-19T16:41:12.632Z,101607.56
2023-02-19T16:43:42.271Z,101613.91
2023-02-19T16:46:12.601Z,101609.13
2023-02-19T16:48:41.793Z,101608.72
2023-02-19T16:51:10.737Z,101611.09
2023-02-19T16:53:39.708Z,101614.31
2023-02-19T16:56:10.457Z,101614.31
2023-02-19T16:58:39.924Z,101612.44
2023-02-19T17:01:08.071Z,101619.13
2023-02-19T17:03:35.868Z,101620.25
2023-02-19T17:06:05.276Z,101619.22
2023-02-19T17:08:35.401Z,101620.72
2023-02-19T17:11:05.103Z,101629.94
2023-02-19T17:13:33.071Z,101618.88
2023-02-19T17:16:01.177Z,101622.63
2023-02-19T17:18:29.207Z,101626.25
2023-02-19T17:21:02.248Z,101624.41
2023-02-19T17:23:31.407Z,101617.50
2023-02-19T17:25:59.070Z,101619.00
2023-02-19T17:28:26.914Z,101629.72
2023-02-19T17:30:55.078Z,101629.53
2023-02-19T17:33:22.787Z,101621.41
2023-02-19T17:35:50.428Z,101630.22
2023-02-19T17:38:18.045Z,101630.22
2023-02-19T17:40:47.047Z,101631.50
2023-02-19T17:43:14.759Z,101628.19
2023-02-19T17:45:42.686Z,101631.13
2023-02-19T17:48:13.407Z,101628.63
2023-02-19T17:50:41.621Z,101629.47
2023-02-19T17:53:09.814Z,101635.16
2023-02-19T17:55:37.473Z,101636.22
2023-02-19T17:58:06.474Z,101637.47
2023-02-19T18:00:35.219Z,101638.53
2023-02-19T18:03:03.071Z,101638.53
2023-02-19T18:05:31.355Z,101642.31
2023-02-19T18:07:59.128Z,101640.88
2023-02-19T18:10:26.852Z,101641.50
2023-02-19T18:12:54.578Z,101638.16
2023-02-19T18:15:26.756Z,101640.25
2023-02-19T18:17:55.492Z,101646.94
2023-02-19T18:20:25.439Z,101644.03
2023-02-19T18:22:53.209Z,101641.75
2023-02-19T18:25:22.105Z,101639.22
2023-02-19T18:27:50.193Z,101641.94
2023-02-19T18:30:19.858Z,101650.94
2023-02-19T18:32:49.273Z,101650.91
2023-02-19T18:35:18.199Z,101650.50
2023-02-19T18:37:45.985Z,101650.25
2023-02-19T18:40:14.237Z,101658.66
2023-02-19T18:42:41.873Z,101662.78
2023-02-19T18:45:09.644Z,101671.81
2023-02-19T18:47:37.275Z,101655.50
2023-02-19T18:50:08.245Z,101663.66
2023-02-19T18:52:35.987Z,101666.56
2023-02-19T18:55:03.896Z,101664.69
2023-02-19T18:57:31.544Z,101664.44
2023-02-19T18:59:59.342Z,101666.56
2023-02-19T19:02:29.746Z,101661.75
2023-02-19T19:04:59.203Z,101658.03
2023-02-19T19:07:28.262Z,101663.25
2023-02-19T19:09:56.009Z,101661.81
2023-02-19T19:12:23.639Z,101659.91
2023-02-19T19:14:51.310Z,101662.00
2023-02-19T19:17:18.991Z,101646.78
2023-02-19T19:19:46.658Z,101653.03
2023-02-19T19:22:15.045Z,101657.63
2023-02-19T19:24:44.079Z,101654.91
2023-02-19T19:27:11.767Z,101666.00
2023-02-19T19:29:39.671Z,101660.78
2023-02-19T19:32:08.690Z,101654.72
2023-02-19T19:34:36.565Z,101653.47
2023-02-19T19:37:04.357Z,101659.13
2023-02-19T19:39:32.092Z,101650.16
2023-02-19T19:42:01.096Z,101661.00
2023-02-19T19:44:28.767Z,101657.25
2023-02-19T19:46:56.440Z,101652.25
2023-02-19T19:49:24.473Z,101654.97
2023-02-19T19:51:52.169Z,101648.06
2023-02-19T19:54:20.066Z,101638.44
2023-02-19T19:56:50.055Z,101642.81
2023-02-19T19:59:19.378Z,101643.88
2023-02-19T20:01:52.062Z,101645.34
2023-02-19T20:04:21.324Z,101647.44
2023-02-19T20:06:49.673Z,101640.75
2023-02-19T20:09:17.980Z,101641.63
2023-02-19T20:11:46.410Z,101634.28
2023-02-19T20:14:14.400Z,101642.44
2023-02-19T20:16:44.834Z,101639.31
2023-02-19T20:19:12.642Z,101643.91
2023-02-19T20:21:40.480Z,101647.25
2023-02-19T20:24:08.844Z,101642.88
2023-02-19T20:26:36.490Z,101650.16
2023-02-19T20:29:05.993Z,101653.50
2023-02-19T20:31:33.789Z,101649.75
2023-02-19T20:34:03.044Z,101651.44
2023-02-19T20:36:32.203Z,101652.66
2023-02-19T20:38:59.907Z,101657.47
2023-02-19T20:41:27.610Z,101665.38
2023-02-19T20:43:55.313Z,101669.56
2023-02-19T20:46:23.457Z,101666.03
2023-02-19T20:48:52.013Z,101660.19
2023-02-19T20:51:21.126Z,101666.84
2023-02-19T20:53:49.275Z,101667.28
2023-02-19T20:56:16.828Z,101669.78
2023-02-19T20:58:44.534Z,101662.28
2023-02-19T21:01:12.627Z,101668.34
2023-02-19T21:03:40.496Z,101667.28
2023-02-19T21:06:08.403Z,101666.25
2023-02-19T21:08:37.610Z,101670.84
2023-02-19T21:11:05.517Z,101676.28
2023-02-19T21:13:33.170Z,101672.94
2023-02-19T21:16:00.814Z,101675.84
2023-02-19T21:18:28.702Z,101664.78
2023-02-19T21:20:56.407Z,101671.25
2023-02-19T21:23:24.078Z,101661.66
2023-02-19T21:25:54.630Z,101650.78
2023-02-19T21:28:22.548Z,101646.41
2023-02-19T21:30:50.395Z,101653.94
2023-02-19T21:33:18.100Z,101642.88
2023-02-19T21:35:46.129Z,101638.69
2023-02-19T21:38:13.811Z,101632.44
2023-02-19T21:40:42.569Z,101625.97
2023-02-19T21:43:12.724Z,101625.13
2023-02-19T21:45:40.427Z,101620.13
2023-02-19T21:48:09.534Z,101615.31
2023-02-19T21:50:37.287Z,101614.09
2023-02-19T21:53:05.508Z,101609.47
2023-02-19T21:55:33.245Z,101606.34
2023-02-19T21:58:00.917Z,101610.53
2023-02-19T22:00:30.307Z,101615.94
2023-02-19T22:02:58.076Z,101600.09
2023-02-19T22:05:26.515Z,101602.19
2023-02-19T22:07:54.309Z,101598.44
2023-02-19T22:10:22.652Z,101595.28
2023-02-19T22:12:50.304Z,101587.16
2023-02-19T22:15:18.426Z,101580.25
2023-02-19T22:17:47.397Z,101579.44
2023-02-19T22:20:17.145Z,101570.69
2023-02-19T22:22:44.763Z,101566.72
2023-02-19T22:25:12.443Z,101556.94
2023-02-19T22:27:40.136Z,101563.78
2023-02-19T22:30:08.876Z,101560.25
2023-02-19T22:32:36.705Z,101559.41
2023-02-19T22:35:06.089Z,101553.78
2023-02-19T22:37:33.918Z,101563.81
2023-02-19T22:40:01.648Z,101555.69
2023-02-19T22:42:29.368Z,101559.63
2023-02-19T22:44:57.058Z,101566.75
2023-02-19T22:47:24.857Z,101567.16
2023-02-19T22:49:52.548Z,101569.22
2023-02-19T22:52:21.650Z,101575.88
2023-02-19T22:54:49.643Z,101587.16
2023-02-19T22:57:17.289Z,101582.97
2023-02-19T22:59:44.930Z,101591.09
2023-02-19T23:02:12.651Z,101594.22
2023-02-19T23:04:40.321Z,101584.22
2023-02-19T23:07:08.104Z,101590.69
2023-02-19T23:09:37.351Z,101582.94
2023-02-19T23:12:06.687Z,101586.94
2023-02-19T23:14:34.850Z,101586.09
2023-02-19T23:17:02.693Z,101589.63
2023-02-19T23:19:30.457Z,101590.28
2023-02-19T23:21:58.203Z,101578.16
2023-02-19T23:24:26.218Z,101573.59
2023-02-19T23:26:55.318Z,101580.47
2023-02-19T23:29:25.577Z,101566.47
2023-02-19T23:31:53.548Z,101569.38
2023-02-19T23:34:21.824Z,101565.47
2023-02-19T23:36:51.538Z,101565.44
2023-02-19T23:39:21.269Z,101548.56
2023-02-19T23:41:50.228Z,101559.81
2023-02-19T23:44:20.802Z,101557.50
2023-02-19T23:46:50.855Z,101542.91
2023-02-19T23:49:19.260Z,101543.34
2023-02-19T23:51:46.970Z,101545.84
2023-02-19T23:54:14.692Z,101544.59
2023-02-19T23:56:42.449Z,101531.69
2023-02-19T23:59:10.109Z,101525.63
